createdAt,value
2018-12-13T00:00:10.265Z,4.93
2018-12-13T00:02:38.648Z,4.47
2018-12-13T00:05:07.139Z,3.50
2018-12-13T00:07:35.505Z,3.60
2018-12-13T00:10:04.168Z,3.53
2018-12-13T00:12:32.536Z,4.13
2018-12-13T00:15:00.963Z,5.20
2018-12-13T00:17:29.336Z,3.90
2018-12-13T00:19:57.727Z,3.90
2018-12-13T00:22:26.100Z,3.90
2018-12-13T00:24:54.810Z,4.33
2018-12-13T00:27:23.162Z,4.53
2018-12-13T00:29:51.581Z,4.33
2018-12-13T00:32:19.977Z,6.57
2018-12-13T00:34:48.351Z,9.37
2018-12-13T00:37:16.854Z,12.67
2018-12-13T00:39:45.267Z,3.70
2018-12-13T00:42:13.663Z,4.10
2018-12-13T00:44:42.062Z,6.20
2018-12-13T00:47:10.422Z,4.60
2018-12-13T00:49:38.783Z,3.63
2018-12-13T00:52:07.156Z,3.63
2018-12-13T00:54:35.555Z,3.37
2018-12-13T00:57:04.124Z,3.40
2018-12-13T00:59:32.509Z,4.27
2018-12-13T01:02:00.874Z,3.37
2018-12-13T01:04:29.272Z,4.07
2018-12-13T01:06:57.627Z,3.00
2018-12-13T01:09:26.028Z,4.10
2018-12-13T01:11:54.402Z,4.40
2018-12-13T01:14:22.812Z,4.20
2018-12-13T01:16:51.206Z,4.50
2018-12-13T01:19:19.600Z,7.13
2018-12-13T01:21:48.000Z,5.53
2018-12-13T01:24:16.439Z,6.60
2018-12-13T01:26:44.821Z,3.60
2018-12-13T01:29:13.236Z,4.23
2018-12-13T01:31:41.592Z,3.67
2018-12-13T01:34:10.007Z,3.53
2018-12-13T01:36:38.387Z,3.90
2018-12-13T01:39:07.898Z,4.13
2018-12-13T01:41:36.304Z,3.97
2018-12-13T01:44:04.677Z,3.93
2018-12-13T01:46:33.338Z,3.60
2018-12-13T01:49:01.707Z,3.53
2018-12-13T01:51:30.098Z,3.53
2018-12-13T01:53:58.492Z,3.50
2018-12-13T01:56:26.896Z,3.33
2018-12-13T01:58:55.256Z,4.17
2018-12-13T02:01:23.632Z,3.73
2018-12-13T02:03:52.012Z,4.20
2018-12-13T02:06:20.419Z,4.50
2018-12-13T02:08:48.783Z,4.43
2018-12-13T02:11:17.229Z,4.23
2018-12-13T02:13:45.620Z,4.07
2018-12-13T02:16:14.064Z,15.27
2018-12-13T02:18:42.416Z,5.50
2018-12-13T02:21:10.826Z,8.07
2018-12-13T02:23:39.187Z,5.53
2018-12-13T02:26:07.828Z,4.10
2018-12-13T02:28:36.712Z,4.03
2018-12-13T02:31:05.161Z,3.90
2018-12-13T02:33:33.649Z,3.80
2018-12-13T02:36:02.148Z,3.67
2018-12-13T02:38:30.526Z,4.40
2018-12-13T02:40:58.884Z,3.77
2018-12-13T02:43:27.220Z,4.73
2018-12-13T02:45:55.572Z,4.30
2018-12-13T02:48:23.928Z,4.70
2018-12-13T02:50:52.392Z,4.60
2018-12-13T02:53:20.752Z,4.10
2018-12-13T02:55:49.171Z,4.63
2018-12-13T02:58:18.222Z,4.37
2018-12-13T03:00:46.553Z,4.27
2018-12-13T03:03:15.123Z,4.43
2018-12-13T03:05:43.461Z,4.50
2018-12-13T03:08:11.948Z,4.27
2018-12-13T03:10:40.276Z,5.10
2018-12-13T03:13:08.727Z,4.37
2018-12-13T03:15:37.211Z,4.60
2018-12-13T03:18:05.596Z,4.73
2018-12-13T03:20:33.933Z,4.60
2018-12-13T03:23:02.395Z,5.00
2018-12-13T03:25:30.778Z,5.03
2018-12-13T03:27:59.157Z,5.10
2018-12-13T03:30:27.495Z,5.20
2018-12-13T03:32:55.870Z,4.93
2018-12-13T03:35:24.218Z,4.97
2018-12-13T03:37:52.598Z,4.63
2018-12-13T03:40:20.964Z,6.00
2018-12-13T03:42:49.434Z,6.20
2018-12-13T03:45:17.781Z,5.80
2018-12-13T03:47:46.327Z,5.43
2018-12-13T03:50:14.646Z,5.27
2018-12-13T03:52:43.975Z,5.93
2018-12-13T03:55:12.533Z,6.27
2018-12-13T03:57:40.897Z,5.87
2018-12-13T04:00:09.369Z,6.07
2018-12-13T04:02:37.709Z,5.57
2018-12-13T04:05:06.277Z,5.37
2018-12-13T04:07:34.628Z,5.30
2018-12-13T04:10:02.961Z,8.27
2018-12-13T04:12:31.316Z,6.73
2018-12-13T04:14:59.688Z,6.03
2018-12-13T04:17:28.179Z,6.70
2018-12-13T04:19:56.539Z,6.93
2018-12-13T04:22:24.958Z,6.50
2018-12-13T04:24:53.316Z,6.03
2018-12-13T04:27:21.684Z,7.47
2018-12-13T04:29:50.000Z,6.07
2018-12-13T04:32:18.545Z,6.37
2018-12-13T04:34:46.980Z,7.27
2018-12-13T04:37:16.383Z,7.10
2018-12-13T04:39:44.815Z,8.60
2018-12-13T04:42:13.137Z,6.83
2018-12-13T04:44:41.591Z,7.07
2018-12-13T04:47:09.943Z,7.00
2018-12-13T04:49:38.285Z,6.50
2018-12-13T04:52:06.617Z,7.00
2018-12-13T04:54:34.983Z,7.17
2018-12-13T04:57:03.333Z,7.77
2018-12-13T04:59:31.696Z,7.40
2018-12-13T05:02:00.157Z,7.20
2018-12-13T05:04:28.544Z,6.97
2018-12-13T05:06:56.894Z,8.23
2018-12-13T05:09:25.289Z,7.63
2018-12-13T05:11:53.680Z,7.37
2018-12-13T05:14:22.062Z,7.57
2018-12-13T05:16:50.420Z,6.80
2018-12-13T05:19:19.199Z,7.67
2018-12-13T05:21:47.536Z,7.47
2018-12-13T05:24:16.039Z,7.07
2018-12-13T05:26:44.397Z,7.60
2018-12-13T05:29:12.767Z,7.10
2018-12-13T05:31:41.108Z,7.60
2018-12-13T05:34:09.496Z,8.93
2018-12-13T05:36:38.160Z,8.57
2018-12-13T05:39:07.650Z,9.00
2018-12-13T05:41:36.156Z,8.83
2018-12-13T05:44:04.781Z,8.90
2018-12-13T05:46:33.197Z,8.83
2018-12-13T05:49:01.595Z,8.27
2018-12-13T05:51:30.066Z,7.87
2018-12-13T05:53:58.392Z,9.23
2018-12-13T05:56:26.716Z,8.50
2018-12-13T05:58:55.461Z,7.93
2018-12-13T06:01:23.842Z,6.93
2018-12-13T06:03:52.176Z,7.50
2018-12-13T06:06:20.584Z,7.97
2018-12-13T06:08:49.052Z,7.77
2018-12-13T06:11:17.437Z,7.40
2018-12-13T06:13:45.786Z,7.93
2018-12-13T06:16:14.165Z,7.67
2018-12-13T06:18:42.565Z,7.10
2018-12-13T06:21:11.909Z,8.53
2018-12-13T06:23:41.077Z,8.30
2018-12-13T06:26:09.476Z,7.40
2018-12-13T06:28:41.062Z,8.63
2018-12-13T06:31:09.572Z,7.43
2018-12-13T06:33:37.992Z,7.50
2018-12-13T06:36:06.474Z,7.50
2018-12-13T06:38:34.837Z,7.80
2018-12-13T06:41:03.557Z,7.70
2018-12-13T06:43:31.935Z,7.73
2018-12-13T06:46:00.524Z,7.83
2018-12-13T06:48:29.042Z,7.23
2018-12-13T06:50:57.577Z,8.00
2018-12-13T06:53:26.050Z,7.53
2018-12-13T06:55:54.566Z,7.87
2018-12-13T06:58:22.977Z,7.40
2018-12-13T07:00:51.523Z,6.90
2018-12-13T07:03:19.917Z,7.67
2018-12-13T07:05:48.820Z,7.00
2018-12-13T07:08:18.076Z,7.73
2018-12-13T07:10:46.653Z,8.07
2018-12-13T07:13:15.161Z,7.37
2018-12-13T07:15:43.799Z,7.50
2018-12-13T07:18:12.334Z,7.07
2018-12-13T07:20:40.800Z,8.57
2018-12-13T07:23:09.209Z,8.30
2018-12-13T07:25:37.826Z,8.07
2018-12-13T07:28:06.281Z,13.00
2018-12-13T07:30:34.738Z,8.13
2018-12-13T07:33:03.312Z,7.50
2018-12-13T07:35:33.022Z,8.03
2018-12-13T07:38:02.713Z,7.33
2018-12-13T07:40:32.702Z,7.20
2018-12-13T07:43:01.645Z,7.83
2018-12-13T07:45:30.659Z,8.03
2018-12-13T07:47:59.350Z,6.87
2018-12-13T07:50:28.095Z,7.63
2018-12-13T07:52:56.593Z,7.63
2018-12-13T07:55:26.782Z,7.27
2018-12-13T07:57:57.691Z,7.40
2018-12-13T08:00:28.681Z,7.00
2018-12-13T08:02:58.968Z,7.30
2018-12-13T08:05:29.355Z,7.10
2018-12-13T08:07:59.837Z,8.00
2018-12-13T08:10:29.362Z,6.60
2018-12-13T08:12:57.925Z,8.13
2018-12-13T08:15:26.394Z,7.97
2018-12-13T08:17:56.362Z,7.80
2018-12-13T08:20:26.097Z,7.77
2018-12-13T08:22:55.243Z,7.67
2018-12-13T08:25:26.568Z,7.93
2018-12-13T08:27:56.920Z,8.97
2018-12-13T08:30:25.502Z,7.70
2018-12-13T08:32:53.958Z,8.50
2018-12-13T08:35:22.619Z,8.37
2018-12-13T08:37:51.614Z,7.50
2018-12-13T08:40:20.122Z,7.87
2018-12-13T08:42:49.525Z,7.73
2018-12-13T08:45:18.875Z,8.37
2018-12-13T08:47:47.577Z,7.77
2018-12-13T08:50:16.094Z,7.63
2018-12-13T08:52:44.506Z,8.13
2018-12-13T08:55:13.792Z,8.87
2018-12-13T08:57:42.241Z,7.77
2018-12-13T09:00:11.013Z,7.90
2018-12-13T09:02:39.430Z,8.17
2018-12-13T09:05:08.192Z,8.23
2018-12-13T09:07:36.587Z,7.67
2018-12-13T09:10:06.672Z,8.27
2018-12-13T09:12:35.405Z,7.70
2018-12-13T09:15:04.779Z,8.47
2018-12-13T09:17:34.433Z,8.13
2018-12-13T09:20:02.967Z,8.33
2018-12-13T09:22:31.513Z,7.10
2018-12-13T09:25:00.481Z,8.37
2018-12-13T09:27:29.819Z,8.30
2018-12-13T09:29:58.383Z,8.47
2018-12-13T09:32:27.039Z,7.93
2018-12-13T09:34:55.702Z,8.30
2018-12-13T09:37:24.277Z,8.23
2018-12-13T09:39:52.804Z,9.07
2018-12-13T09:42:23.035Z,8.80
2018-12-13T09:44:51.542Z,9.03
2018-12-13T09:47:20.132Z,9.23
2018-12-13T09:49:48.725Z,8.37
2018-12-13T09:52:17.735Z,9.17
2018-12-13T09:54:47.981Z,8.87
2018-12-13T09:57:16.398Z,8.80
2018-12-13T09:59:45.100Z,7.97
2018-12-13T10:02:13.559Z,8.30
2018-12-13T10:04:42.011Z,9.07
2018-12-13T10:07:10.613Z,9.37
2018-12-13T10:09:39.305Z,8.80
2018-12-13T10:12:07.807Z,8.83
2018-12-13T10:14:36.578Z,8.33
2018-12-13T10:17:05.057Z,8.90
2018-12-13T10:19:33.898Z,10.30
2018-12-13T10:22:02.432Z,9.00
2018-12-13T10:24:31.086Z,8.80
2018-12-13T10:26:59.601Z,8.07
2018-12-13T10:29:28.263Z,8.80
2018-12-13T10:31:56.759Z,8.60
2018-12-13T10:34:25.349Z,8.67
2018-12-13T10:36:54.592Z,7.83
2018-12-13T10:39:23.006Z,8.70
2018-12-13T10:41:51.480Z,8.50
2018-12-13T10:44:24.146Z,8.40
2018-12-13T10:46:54.173Z,10.53
2018-12-13T10:49:22.857Z,9.37
2018-12-13T10:51:51.341Z,12.00
2018-12-13T10:54:19.800Z,9.33
2018-12-13T10:56:48.272Z,8.87
2018-12-13T10:59:17.569Z,11.30
2018-12-13T11:01:50.221Z,10.40
2018-12-13T11:04:18.701Z,8.63
2018-12-13T11:06:47.130Z,8.47
2018-12-13T11:09:15.715Z,10.00
2018-12-13T11:11:44.204Z,9.33
2018-12-13T11:14:13.147Z,9.73
2018-12-13T11:16:41.605Z,8.47
2018-12-13T11:19:10.092Z,9.27
2018-12-13T11:21:38.518Z,7.83
2018-12-13T11:24:07.196Z,9.33
2018-12-13T11:26:36.922Z,7.60
2018-12-13T11:29:42.236Z,7.83
2018-12-13T11:32:11.651Z,8.23
2018-12-13T11:34:40.717Z,10.33
2018-12-13T11:37:09.531Z,9.03
2018-12-13T11:39:38.090Z,10.00
2018-12-13T11:42:06.537Z,9.43
2018-12-13T11:44:36.859Z,9.17
2018-12-13T11:49:47.521Z,8.67
2018-12-13T11:52:16.747Z,9.47
2018-12-13T11:54:45.546Z,9.87
2018-12-13T11:57:14.000Z,8.50
2018-12-13T11:59:42.598Z,10.73
2018-12-13T12:02:11.090Z,10.63
2018-12-13T12:04:40.260Z,13.67
2018-12-13T12:07:09.275Z,11.23
2018-12-13T12:09:37.695Z,14.20
2018-12-13T12:12:06.193Z,10.20
2018-12-13T12:14:37.150Z,10.83
2018-12-13T12:17:06.509Z,12.80
2018-12-13T12:19:35.843Z,11.53
2018-12-13T12:22:07.521Z,10.03
2018-12-13T12:24:36.107Z,9.23
2018-12-13T12:27:04.813Z,9.23
2018-12-13T12:29:33.678Z,8.70
2018-12-13T12:32:03.324Z,9.07
2018-12-13T12:34:31.917Z,9.97
2018-12-13T12:37:00.777Z,9.50
2018-12-13T12:39:30.011Z,9.27
2018-12-13T12:41:58.628Z,11.43
2018-12-13T12:44:33.614Z,10.47
2018-12-13T12:47:02.546Z,10.53
2018-12-13T12:49:32.378Z,8.37
2018-12-13T12:52:01.070Z,8.13
2018-12-13T12:54:30.257Z,9.80
2018-12-13T12:56:59.053Z,9.27
2018-12-13T12:59:27.711Z,10.83
2018-12-13T13:01:56.529Z,10.27
2018-12-13T13:04:25.625Z,11.73
2018-12-13T13:06:54.434Z,16.97
2018-12-13T13:09:25.217Z,14.87
2018-12-13T13:11:54.041Z,8.73
2018-12-13T13:14:22.686Z,12.30
2018-12-13T13:16:51.491Z,12.23
2018-12-13T13:19:20.083Z,13.87
2018-12-13T13:21:48.779Z,10.23
2018-12-13T13:24:17.602Z,8.97
2018-12-13T13:26:47.891Z,9.73
2018-12-13T13:29:16.622Z,17.60
2018-12-13T13:31:46.513Z,12.70
2018-12-13T13:34:15.205Z,13.47
2018-12-13T13:36:44.070Z,9.60
2018-12-13T13:39:12.990Z,14.83
2018-12-13T13:41:43.404Z,12.90
2018-12-13T13:44:12.267Z,12.73
2018-12-13T13:46:40.961Z,10.70
2018-12-13T13:49:09.381Z,9.00
2018-12-13T13:51:37.844Z,10.50
2018-12-13T13:54:06.257Z,8.63
2018-12-13T13:56:34.689Z,8.53
2018-12-13T13:59:03.171Z,9.00
2018-12-13T14:01:32.249Z,7.10
2018-12-13T14:04:00.631Z,8.57
2018-12-13T14:06:29.073Z,8.90
2018-12-13T14:08:58.531Z,8.00
2018-12-13T14:11:27.177Z,10.90
2018-12-13T14:13:57.390Z,11.23
2018-12-13T14:16:25.867Z,9.83
2018-12-13T14:18:54.407Z,8.73
2018-12-13T14:21:23.587Z,9.43
2018-12-13T14:23:52.036Z,8.13
2018-12-13T14:26:20.584Z,8.90
2018-12-13T14:28:49.805Z,9.87
2018-12-13T14:31:18.348Z,9.10
2018-12-13T14:33:46.792Z,12.27
2018-12-13T14:36:16.191Z,9.77
2018-12-13T14:38:45.020Z,11.40
2018-12-13T14:41:14.072Z,16.73
2018-12-13T14:43:42.680Z,13.53
2018-12-13T14:46:12.097Z,17.90
2018-12-13T14:48:40.502Z,10.27
2018-12-13T14:51:09.685Z,14.40
2018-12-13T14:53:38.098Z,13.73
2018-12-13T14:56:06.477Z,11.47
2018-12-13T14:58:34.899Z,7.47
2018-12-13T15:01:03.584Z,9.27
2018-12-13T15:03:32.731Z,10.73
2018-12-13T15:06:01.127Z,9.13
2018-12-13T15:08:29.688Z,11.27
2018-12-13T15:10:58.116Z,8.57
2018-12-13T15:13:26.614Z,10.70
2018-12-13T15:15:55.152Z,10.53
2018-12-13T15:18:23.673Z,10.03
2018-12-13T15:20:52.119Z,12.50
2018-12-13T15:23:27.242Z,8.30
2018-12-13T15:25:55.685Z,9.50
2018-12-13T15:28:24.295Z,8.80
2018-12-13T15:30:52.749Z,9.87
2018-12-13T15:33:21.808Z,10.63
2018-12-13T15:35:50.260Z,10.50
2018-12-13T15:38:19.348Z,10.13
2018-12-13T15:40:47.780Z,8.50
2018-12-13T15:43:16.280Z,8.77
2018-12-13T15:45:44.705Z,12.60
2018-12-13T15:48:13.561Z,10.83
2018-12-13T15:50:42.240Z,9.23
2018-12-13T15:53:10.755Z,9.07
2018-12-13T15:55:39.199Z,9.23
2018-12-13T15:58:08.140Z,22.47
2018-12-13T16:00:37.050Z,11.77
2018-12-13T16:03:05.552Z,11.73
2018-12-13T16:05:34.105Z,12.33
2018-12-13T16:08:02.477Z,12.50
2018-12-13T16:10:32.437Z,11.17
2018-12-13T16:13:00.824Z,14.90
2018-12-13T16:18:10.954Z,10.47
2018-12-13T16:20:39.389Z,10.63
2018-12-13T16:23:07.905Z,11.53
2018-12-13T16:25:36.742Z,7.90
2018-12-13T16:28:05.508Z,10.13
2018-12-13T16:30:34.038Z,11.00
2018-12-13T16:33:02.504Z,10.43
2018-12-13T16:35:30.931Z,9.63
2018-12-13T16:38:00.156Z,8.57
2018-12-13T16:40:28.668Z,8.67
2018-12-13T16:42:57.088Z,17.73
2018-12-13T16:45:25.454Z,35.17
2018-12-13T16:47:54.349Z,15.40
2018-12-13T16:50:22.709Z,16.57
2018-12-13T16:52:51.807Z,11.30
2018-12-13T16:55:20.932Z,30.27
2018-12-13T16:57:50.124Z,17.93
2018-12-13T17:00:19.165Z,24.57
2018-12-13T17:02:47.907Z,23.00
2018-12-13T17:05:16.489Z,24.40
2018-12-13T17:07:45.040Z,36.60
2018-12-13T17:10:16.807Z,35.27
2018-12-13T17:12:44.119Z,20.97
2018-12-13T17:15:12.565Z,23.07
2018-12-13T17:17:40.961Z,28.37
2018-12-13T17:20:09.374Z,14.87
2018-12-13T17:22:37.868Z,14.43
2018-12-13T17:25:06.774Z,20.30
2018-12-13T17:27:35.432Z,8.67
2018-12-13T17:30:04.352Z,9.17
2018-12-13T17:32:32.736Z,9.20
2018-12-13T17:35:01.132Z,14.30
2018-12-13T17:37:29.719Z,20.33
2018-12-13T17:39:58.581Z,27.67
2018-12-13T17:42:26.959Z,28.27
2018-12-13T17:44:55.345Z,41.40
2018-12-13T17:47:23.776Z,29.53
2018-12-13T17:49:52.193Z,23.43
2018-12-13T17:52:21.180Z,23.93
2018-12-13T17:54:49.705Z,12.70
2018-12-13T17:57:18.154Z,40.93
2018-12-13T17:59:46.606Z,95.87
2018-12-13T18:02:15.497Z,24.30
2018-12-13T18:04:43.883Z,58.53
2018-12-13T18:07:12.868Z,24.93
2018-12-13T18:09:41.262Z,30.73
2018-12-13T18:12:09.817Z,26.43
2018-12-13T18:14:38.402Z,14.73
2018-12-13T18:17:06.803Z,28.27
2018-12-13T18:19:36.267Z,14.03
2018-12-13T18:22:04.641Z,20.10
2018-12-13T18:24:33.153Z,19.03
2018-12-13T18:27:01.563Z,15.93
2018-12-13T18:29:30.109Z,12.30
2018-12-13T18:31:58.509Z,15.30
2018-12-13T18:34:26.969Z,15.43
2018-12-13T18:36:55.333Z,19.57
2018-12-13T18:39:23.905Z,10.70
2018-12-13T18:41:52.340Z,8.00
2018-12-13T18:44:20.724Z,9.13
2018-12-13T18:46:49.248Z,13.60
2018-12-13T18:49:17.632Z,11.47
2018-12-13T18:51:45.985Z,16.30
2018-12-13T18:54:14.379Z,22.30
2018-12-13T18:56:43.005Z,12.37
2018-12-13T18:59:12.420Z,18.17
2018-12-13T19:01:40.825Z,14.53
2018-12-13T19:04:09.149Z,12.40
2018-12-13T19:06:37.576Z,22.33
2018-12-13T19:09:07.553Z,12.63
2018-12-13T19:11:36.056Z,21.60
2018-12-13T19:14:04.785Z,21.30
2018-12-13T19:16:33.325Z,17.00
2018-12-13T19:19:02.801Z,11.07
2018-12-13T19:21:33.601Z,19.93
2018-12-13T19:24:03.685Z,15.00
2018-12-13T19:26:33.749Z,8.57
2018-12-13T19:29:03.286Z,10.57
2018-12-13T19:31:31.717Z,9.70
2018-12-13T19:34:00.073Z,8.27
2018-12-13T19:36:28.455Z,7.87
2018-12-13T19:38:56.794Z,8.07
2018-12-13T19:41:25.162Z,9.03
2018-12-13T19:43:53.561Z,8.13
2018-12-13T19:46:22.577Z,10.30
2018-12-13T19:48:51.080Z,8.03
2018-12-13T19:51:19.505Z,8.47
2018-12-13T19:53:47.933Z,8.17
2018-12-13T19:56:16.279Z,12.20
2018-12-13T19:58:44.697Z,9.20
2018-12-13T20:01:13.128Z,8.93
2018-12-13T20:03:41.501Z,9.07
2018-12-13T20:06:10.251Z,7.97
2018-12-13T20:08:38.740Z,7.50
2018-12-13T20:11:07.113Z,9.87
2018-12-13T20:13:35.542Z,8.53
2018-12-13T20:16:03.932Z,10.43
2018-12-13T20:18:32.300Z,8.57
2018-12-13T20:21:00.678Z,7.87
2018-12-13T20:23:29.069Z,8.27
2018-12-13T20:25:57.533Z,8.77
2018-12-13T20:28:25.893Z,8.50
2018-12-13T20:30:54.285Z,8.13
2018-12-13T20:33:23.170Z,7.93
2018-12-13T20:35:52.058Z,7.13
2018-12-13T20:38:20.444Z,8.13
2018-12-13T20:40:48.796Z,7.90
2018-12-13T20:43:17.214Z,8.27
2018-12-13T20:45:46.377Z,8.40
2018-12-13T20:48:15.374Z,7.90
2018-12-13T20:50:43.780Z,7.63
2018-12-13T20:53:12.129Z,7.53
2018-12-13T20:55:40.535Z,7.23
2018-12-13T20:58:08.860Z,7.10
2018-12-13T21:00:37.232Z,7.27
2018-12-13T21:03:05.706Z,7.67
2018-12-13T21:05:34.233Z,7.37
2018-12-13T21:08:09.212Z,7.27
2018-12-13T21:10:38.966Z,7.97
2018-12-13T21:13:07.496Z,7.20
2018-12-13T21:15:36.104Z,8.07
2018-12-13T21:18:04.572Z,8.00
2018-12-13T21:20:32.969Z,6.97
2018-12-13T21:23:01.372Z,7.37
2018-12-13T21:25:29.778Z,7.10
2018-12-13T21:27:58.149Z,7.87
2018-12-13T21:30:26.545Z,7.50
2018-12-13T21:32:54.920Z,7.63
2018-12-13T21:35:23.425Z,8.30
2018-12-13T21:37:51.826Z,10.03
2018-12-13T21:40:20.276Z,10.77
2018-12-13T21:42:48.702Z,8.97
2018-12-13T21:45:17.140Z,10.20
2018-12-13T21:47:45.599Z,7.77
2018-12-13T21:50:14.001Z,9.77
2018-12-13T21:52:42.397Z,8.70
2018-12-13T21:55:10.884Z,9.90
2018-12-13T21:57:39.482Z,7.77
2018-12-13T22:00:10.014Z,9.23
2018-12-13T22:02:38.413Z,12.93
2018-12-13T22:05:07.153Z,7.40
2018-12-13T22:07:35.582Z,7.80
2018-12-13T22:10:05.563Z,7.80
2018-12-13T22:12:34.076Z,9.60
2018-12-13T22:15:02.899Z,10.57
2018-12-13T22:17:31.472Z,11.77
2018-12-13T22:19:59.831Z,9.77
2018-12-13T22:22:28.228Z,8.27
2018-12-13T22:24:57.093Z,7.60
2018-12-13T22:27:25.469Z,8.00
2018-12-13T22:29:53.852Z,8.13
2018-12-13T22:32:22.272Z,7.73
2018-12-13T22:34:50.635Z,7.23
2018-12-13T22:37:19.126Z,8.37
2018-12-13T22:39:47.501Z,9.17
2018-12-13T22:42:16.155Z,9.47
2018-12-13T22:44:44.509Z,8.43
2018-12-13T22:47:12.906Z,7.77
2018-12-13T22:49:41.424Z,9.37
2018-12-13T22:52:09.835Z,9.10
2018-12-13T22:54:38.193Z,10.73
2018-12-13T22:57:13.517Z,7.73
2018-12-13T22:59:41.883Z,7.60
2018-12-13T23:02:10.364Z,8.17
2018-12-13T23:04:38.781Z,8.60
2018-12-13T23:07:07.170Z,8.57
2018-12-13T23:09:35.533Z,8.00
2018-12-13T23:12:03.993Z,12.60
2018-12-13T23:14:32.517Z,9.23
2018-12-13T23:17:00.921Z,9.67
2018-12-13T23:19:29.300Z,9.13
2018-12-13T23:21:57.657Z,8.23
2018-12-13T23:24:26.012Z,8.70
2018-12-13T23:26:54.357Z,8.20
2018-12-13T23:29:22.737Z,8.57
2018-12-13T23:31:51.098Z,8.40
2018-12-13T23:34:19.445Z,8.23
2018-12-13T23:36:47.767Z,8.47
2018-12-13T23:39:16.144Z,8.83
2018-12-13T23:41:44.485Z,9.37
2018-12-13T23:44:12.861Z,8.73
2018-12-13T23:46:41.200Z,8.73
2018-12-13T23:49:09.572Z,8.57
2018-12-13T23:51:37.909Z,7.67
2018-12-13T23:54:06.290Z,7.90
2018-12-13T23:56:34.624Z,7.70
2018-12-13T23:59:02.998Z,7.63
